Time;durP1;ratioP1;P1;durP2;ratioP2;P2;SDS_P1;SDS_P2;PMS_P1;PMS_P2;Temp;Humidity;BMP_temperature;BMP_pressure;BME280_temperature;BME280_humidity;BME280_pressure;Samples;Min_cycle;Max_cycle;Signal;HPM_P1;HPM_P2
2021/01/01 00:01:38;;;;;;;17.67;12.30;;;7.30;99.90;;;;;;5034835;28;20131;-76
2021/01/01 00:04:05;;;;;;;15.05;11.93;;;7.30;99.90;;;;;;5034837;28;20061;-75
2021/01/01 00:06:31;;;;;;;13.02;11.73;;;7.30;99.90;;;;;;5032439;28;20025;-75
2021/01/01 00:08:57;;;;;;;15.38;11.13;;;7.40;99.90;;;;;;5020532;28;20041;-75
2021/01/01 00:11:24;;;;;;;17.80;12.38;;;7.50;99.90;;;;;;5030218;28;20097;-75
2021/01/01 00:13:50;;;;;;;12.90;10.10;;;7.40;99.90;;;;;;5034462;28;20029;-76
2021/01/01 00:16:16;;;;;;;11.73;10.45;;;7.50;99.90;;;;;;5033162;28;20021;-76
2021/01/01 00:18:42;;;;;;;13.32;10.00;;;7.50;99.90;;;;;;5033029;28;20493;-75
2021/01/01 00:21:09;;;;;;;11.68;9.40;;;7.50;99.90;;;;;;5034216;28;20423;-75
2021/01/01 00:23:37;;;;;;;15.38;11.18;;;7.50;99.90;;;;;;5033008;28;20135;-75
2021/01/01 00:26:09;;;;;;;12.13;10.82;;;7.50;99.90;;;;;;5033374;28;20030;-75
2021/01/01 00:28:35;;;;;;;11.98;9.23;;;7.50;99.90;;;;;;5034289;28;20025;-75
2021/01/01 00:31:01;;;;;;;12.63;9.73;;;7.60;99.90;;;;;;5035098;28;20025;-75
2021/01/01 00:33:27;;;;;;;11.27;10.07;;;7.70;99.90;;;;;;5031694;28;20022;-76
2021/01/01 00:35:53;;;;;;;12.18;9.38;;;7.70;99.90;;;;;;5031533;28;20032;-75
2021/01/01 00:38:19;;;;;;;10.93;8.57;;;7.70;99.90;;;;;;5031437;28;20017;-76
2021/01/01 00:40:44;;;;;;;9.07;8.07;;;7.80;99.90;;;;;;5031500;28;20036;-76
2021/01/01 00:43:10;;;;;;;10.68;7.78;;;7.80;99.90;;;;;;5033082;28;20026;-76
2021/01/01 00:45:36;;;;;;;10.15;7.20;;;7.80;99.90;;;;;;5034182;28;20049;-75
2021/01/01 00:48:02;;;;;;;11.80;8.98;;;7.80;99.90;;;;;;5031667;28;20037;-75
2021/01/01 00:50:28;;;;;;;9.77;8.52;;;7.90;99.90;;;;;;5033589;28;20029;-75
2021/01/01 00:52:54;;;;;;;13.70;9.30;;;8.00;99.90;;;;;;5034742;28;20040;-75
2021/01/01 00:55:21;;;;;;;13.07;8.63;;;8.00;99.90;;;;;;5033703;28;20052;-76
2021/01/01 00:57:47;;;;;;;10.90;9.60;;;8.00;99.90;;;;;;5032794;28;20025;-76
2021/01/01 01:00:13;;;;;;;10.10;9.07;;;8.00;99.90;;;;;;5033187;28;20369;-75
2021/01/01 01:02:39;;;;;;;11.60;9.30;;;8.00;99.90;;;;;;5031607;28;20029;-75
2021/01/01 01:05:06;;;;;;;11.18;8.25;;;8.00;99.90;;;;;;5029642;28;20151;-76
2021/01/01 01:07:31;;;;;;;12.52;9.68;;;7.80;99.90;;;;;;5030339;28;20044;-76
2021/01/01 01:09:57;;;;;;;12.05;8.20;;;7.80;99.90;;;;;;5032727;28;20022;-75
2021/01/01 01:12:23;;;;;;;11.70;9.65;;;7.80;99.90;;;;;;5033345;28;20097;-76
2021/01/01 01:14:49;;;;;;;10.32;9.07;;;7.80;99.90;;;;;;5033973;28;20400;-75
2021/01/01 01:17:15;;;;;;;10.38;9.13;;;7.90;99.90;;;;;;5031638;28;20033;-76
2021/01/01 01:19:41;;;;;;;11.20;8.50;;;7.90;99.90;;;;;;5033265;28;20044;-74
2021/01/01 01:22:07;;;;;;;14.32;10.10;;;7.80;99.90;;;;;;5024857;28;20021;-75
2021/01/01 01:24:33;;;;;;;9.88;8.68;;;7.80;99.90;;;;;;5031765;28;20028;-76
2021/01/01 01:26:59;;;;;;;11.10;8.68;;;7.80;99.90;;;;;;5031563;28;20034;-75
2021/01/01 01:29:25;;;;;;;19.23;12.10;;;7.90;99.90;;;;;;5033053;28;20089;-76
2021/01/01 01:31:51;;;;;;;13.20;10.20;;;7.70;99.90;;;;;;5033866;28;20021;-76
2021/01/01 01:34:16;;;;;;;12.10;8.98;;;7.60;99.90;;;;;;5030154;28;20029;-76
2021/01/01 01:36:42;;;;;;;13.43;10.55;;;7.60;99.90;;;;;;5033151;28;20018;-77
2021/01/01 01:39:08;;;;;;;10.40;9.30;;;7.60;99.90;;;;;;5033706;28;20025;-76
2021/01/01 01:41:34;;;;;;;11.75;9.20;;;7.60;99.90;;;;;;5031573;28;20083;-75
2021/01/01 01:44:00;;;;;;;11.10;8.95;;;7.70;99.90;;;;;;5030659;28;20031;-76
2021/01/01 01:46:39;;;;;;;9.23;7.43;;;7.70;99.90;;;;;;5031088;28;20100;-74
2021/01/01 01:49:07;;;;;;;10.68;7.90;;;7.70;99.90;;;;;;5028668;28;20116;-75
2021/01/01 01:51:37;;;;;;;8.50;7.05;;;7.90;99.90;;;;;;5031535;28;20100;-76
2021/01/01 01:54:04;;;;;;;8.98;8.07;;;8.00;99.90;;;;;;5028570;28;20033;-75
2021/01/01 01:56:31;;;;;;;10.70;8.82;;;8.00;99.90;;;;;;5030977;28;20184;-75
2021/01/01 01:58:59;;;;;;;8.63;7.72;;;7.90;99.90;;;;;;5031073;28;20022;-76
2021/01/01 02:01:25;;;;;;;9.43;7.13;;;7.90;99.90;;;;;;5029799;28;20116;-75
2021/01/01 02:03:53;;;;;;;11.63;8.55;;;7.80;99.90;;;;;;5021515;28;20026;-75
2021/01/01 02:06:20;;;;;;;14.75;9.50;;;7.90;99.90;;;;;;5032008;28;20113;-74
2021/01/01 02:08:48;;;;;;;11.05;8.60;;;7.90;99.90;;;;;;5029585;28;20029;-76
2021/01/01 02:11:14;;;;;;;8.18;7.38;;;7.90;99.90;;;;;;5020633;28;20034;-75
2021/01/01 02:13:40;;;;;;;13.15;7.68;;;7.90;99.90;;;;;;5013701;28;20018;-75
2021/01/01 02:16:09;;;;;;;7.82;6.85;;;7.90;99.90;;;;;;5031118;28;20420;-75
2021/01/01 02:18:35;;;;;;;9.55;7.40;;;8.00;99.90;;;;;;5030356;28;20025;-75
2021/01/01 02:21:03;;;;;;;9.57;7.50;;;8.00;99.90;;;;;;5033226;28;20024;-75
2021/01/01 02:23:29;;;;;;;7.10;6.40;;;8.00;99.90;;;;;;5031130;28;20024;-75
2021/01/01 02:25:55;;;;;;;10.07;7.07;;;8.00;99.90;;;;;;5030216;28;20021;-76
2021/01/01 02:28:21;;;;;;;5.90;5.35;;;8.10;99.90;;;;;;5030783;28;20056;-75
2021/01/01 02:30:47;;;;;;;6.15;5.32;;;8.20;99.90;;;;;;5033404;28;20030;-76
2021/01/01 02:33:13;;;;;;;6.35;5.65;;;8.10;99.90;;;;;;5031697;28;20026;-76
2021/01/01 02:35:39;;;;;;;8.25;6.90;;;8.20;99.90;;;;;;5035020;28;20081;-76
2021/01/01 02:38:05;;;;;;;7.70;6.20;;;8.20;99.90;;;;;;5035206;28;20025;-75
2021/01/01 02:40:31;;;;;;;8.73;6.65;;;8.20;99.90;;;;;;5031995;28;20021;-75
2021/01/01 02:42:56;;;;;;;7.80;5.25;;;8.20;99.90;;;;;;5031031;28;20040;-76
2021/01/01 02:45:22;;;;;;;6.28;5.68;;;8.20;99.90;;;;;;5046923;28;20112;-76
2021/01/01 02:47:49;;;;;;;7.65;5.10;;;8.20;99.90;;;;;;5031357;28;20033;-76
2021/01/01 02:50:17;;;;;;;6.75;5.85;;;8.20;99.90;;;;;;5032623;28;20570;-76
2021/01/01 02:52:43;;;;;;;5.55;5.05;;;8.10;99.90;;;;;;5030751;28;20078;-76
2021/01/01 02:55:10;;;;;;;7.38;5.30;;;8.10;99.90;;;;;;5032054;28;20025;-76
2021/01/01 02:57:36;;;;;;;5.95;5.07;;;8.00;99.90;;;;;;5031254;28;20095;-76
2021/01/01 03:00:06;;;;;;;5.18;4.68;;;7.90;99.90;;;;;;5033006;28;20042;-75
2021/01/01 03:02:32;;;;;;;5.97;5.47;;;8.00;99.90;;;;;;5025418;28;20096;-75
2021/01/01 03:04:58;;;;;;;8.55;4.97;;;8.00;99.90;;;;;;5030008;28;20049;-76
2021/01/01 03:07:24;;;;;;;8.20;5.63;;;7.90;99.90;;;;;;5033718;28;20060;-75
2021/01/01 03:09:50;;;;;;;6.20;5.60;;;7.90;99.90;;;;;;5035700;28;20538;-75
2021/01/01 03:12:16;;;;;;;7.43;6.50;;;7.90;99.90;;;;;;5033757;28;20425;-75
2021/01/01 03:14:42;;;;;;;7.03;6.30;;;7.80;99.90;;;;;;5035205;28;20052;-76
2021/01/01 03:17:08;;;;;;;7.57;6.38;;;7.80;99.90;;;;;;5031382;28;20615;-76
2021/01/01 03:19:34;;;;;;;9.70;5.70;;;7.90;99.90;;;;;;5034092;28;20025;-76
2021/01/01 03:22:00;;;;;;;6.22;5.30;;;7.80;99.90;;;;;;5032071;28;20021;-76
2021/01/01 03:24:26;;;;;;;5.85;5.25;;;7.80;99.90;;;;;;5033562;28;20025;-76
2021/01/01 03:26:51;;;;;;;6.38;5.70;;;7.80;99.90;;;;;;5031801;28;20056;-76
2021/01/01 03:29:17;;;;;;;5.40;4.55;;;7.80;99.90;;;;;;5033288;28;20480;-75
2021/01/01 03:31:46;;;;;;;7.72;4.32;;;7.80;99.90;;;;;;5034286;28;20053;-75
2021/01/01 03:34:12;;;;;;;6.28;4.90;;;7.80;99.90;;;;;;5033321;28;20132;-76
2021/01/01 03:36:38;;;;;;;4.35;3.92;;;7.80;99.90;;;;;;5032578;28;20493;-76
2021/01/01 03:39:04;;;;;;;5.18;4.22;;;8.00;99.90;;;;;;5033441;28;20485;-75
2021/01/01 03:41:30;;;;;;;4.32;3.95;;;8.00;99.90;;;;;;5034216;28;20480;-75
2021/01/01 03:43:56;;;;;;;8.05;5.30;;;7.90;99.90;;;;;;5035157;28;20041;-75
2021/01/01 03:46:21;;;;;;;4.85;3.88;;;7.90;99.90;;;;;;5033560;28;20425;-75
2021/01/01 03:48:47;;;;;;;4.78;4.07;;;7.90;99.90;;;;;;5028068;28;20030;-76
2021/01/01 03:51:13;;;;;;;5.40;4.28;;;7.90;99.90;;;;;;5035878;28;20013;-76
2021/01/01 03:53:39;;;;;;;6.03;4.90;;;7.90;99.90;;;;;;5027064;28;20014;-75
2021/01/01 03:56:05;;;;;;;7.38;4.32;;;8.00;99.90;;;;;;5032389;28;20049;-76
2021/01/01 03:58:31;;;;;;;5.72;4.88;;;7.90;99.90;;;;;;5043186;28;20018;-75
2021/01/01 04:00:58;;;;;;;6.03;4.28;;;7.80;99.90;;;;;;5030612;28;20017;-76
2021/01/01 04:03:25;;;;;;;6.05;4.75;;;7.80;99.90;;;;;;5034583;28;20116;-75
2021/01/01 04:05:50;;;;;;;6.60;4.72;;;7.90;99.90;;;;;;5023678;28;20030;-77
2021/01/01 04:08:16;;;;;;;6.10;4.78;;;7.80;99.90;;;;;;5015346;28;20040;-75
2021/01/01 04:10:42;;;;;;;7.00;5.00;;;7.80;99.90;;;;;;5033125;28;20028;-75
2021/01/01 04:13:09;;;;;;;7.30;4.78;;;7.70;99.90;;;;;;5033687;28;20444;-75
2021/01/01 04:15:35;;;;;;;4.68;4.28;;;7.80;99.90;;;;;;5027817;28;20029;-76
2021/01/01 04:18:01;;;;;;;6.78;4.72;;;7.70;99.90;;;;;;5032444;28;20381;-75
2021/01/01 04:20:27;;;;;;;5.07;4.55;;;7.70;99.90;;;;;;5033936;28;20047;-75
2021/01/01 04:22:52;;;;;;;5.03;4.43;;;7.70;99.90;;;;;;5033635;28;20017;-75
2021/01/01 04:25:18;;;;;;;5.63;4.53;;;7.80;99.90;;;;;;5033456;28;20026;-76
2021/01/01 04:27:44;;;;;;;4.40;4.00;;;7.70;99.90;;;;;;5033274;28;20492;-74
2021/01/01 04:30:11;;;;;;;6.47;4.47;;;7.60;99.90;;;;;;5034440;28;20034;-75
2021/01/01 04:32:37;;;;;;;7.88;4.72;;;7.70;99.90;;;;;;5033796;28;20489;-75
2021/01/01 04:35:03;;;;;;;6.68;4.45;;;7.70;99.90;;;;;;5034028;28;20029;-75
2021/01/01 04:37:29;;;;;;;4.85;4.07;;;7.70;99.90;;;;;;5032048;28;20477;-76
2021/01/01 04:39:55;;;;;;;4.93;4.03;;;7.90;99.90;;;;;;5034300;28;20091;-75
2021/01/01 04:42:23;;;;;;;4.40;4.00;;;7.90;99.90;;;;;;5032691;28;20021;-74
2021/01/01 04:44:49;;;;;;;5.35;3.72;;;7.90;99.90;;;;;;5033725;28;20037;-75
2021/01/01 04:47:16;;;;;;;9.00;4.88;;;7.90;99.90;;;;;;5032840;28;20128;-76
2021/01/01 04:49:42;;;;;;;5.60;4.70;;;7.80;99.90;;;;;;5025639;28;20072;-76
2021/01/01 04:52:09;;;;;;;5.65;4.30;;;7.70;99.90;;;;;;5029450;28;20465;-75
2021/01/01 04:54:36;;;;;;;5.85;4.05;;;7.70;99.90;;;;;;5030744;28;20029;-76
2021/01/01 04:57:02;;;;;;;5.05;4.10;;;7.70;99.90;;;;;;5030403;28;20080;-75
2021/01/01 04:59:28;;;;;;;8.13;5.18;;;7.70;99.90;;;;;;5033942;28;20665;-75
2021/01/01 05:01:54;;;;;;;7.97;4.25;;;7.70;99.90;;;;;;5021201;28;20030;-76
2021/01/01 05:04:20;;;;;;;4.30;3.90;;;7.80;99.90;;;;;;5031440;28;20029;-75
2021/01/01 05:06:46;;;;;;;7.43;4.43;;;7.80;99.90;;;;;;5032139;28;20048;-77
2021/01/01 05:09:13;;;;;;;7.65;5.03;;;7.80;99.90;;;;;;5033892;28;20488;-76
2021/01/01 05:11:39;;;;;;;6.20;4.40;;;7.90;99.90;;;;;;5032987;28;20025;-75
2021/01/01 05:14:06;;;;;;;7.85;5.20;;;7.80;99.90;;;;;;5033684;28;20031;-75
2021/01/01 05:16:33;;;;;;;6.50;5.25;;;7.80;99.90;;;;;;5031537;28;20752;-76
2021/01/01 05:19:07;;;;;;;6.50;5.05;;;7.80;99.90;;;;;;5032876;28;20028;-74
2021/01/01 05:21:33;;;;;;;6.63;5.13;;;7.70;99.90;;;;;;5033483;28;20017;-76
2021/01/01 05:23:59;;;;;;;10.98;5.32;;;7.80;99.90;;;;;;5032960;28;20025;-75
2021/01/01 05:26:26;;;;;;;5.75;4.85;;;7.90;99.90;;;;;;5031300;28;20056;-74
2021/01/01 05:29:17;;;;;;;10.90;5.00;;;7.90;99.90;;;;;;5032685;28;20112;-78
2021/01/01 05:31:43;;;;;;;5.15;4.65;;;7.80;99.90;;;;;;5029967;28;20038;-76
2021/01/01 05:34:13;;;;;;;5.85;4.82;;;7.90;99.90;;;;;;5032074;28;20048;-75
2021/01/01 05:36:41;;;;;;;9.52;4.88;;;7.80;99.90;;;;;;5031153;28;20100;-75
2021/01/01 05:39:28;;;;;;;5.90;4.55;;;7.90;99.90;;;;;;5025376;28;20067;-74
2021/01/01 05:41:54;;;;;;;5.78;4.97;;;7.80;99.90;;;;;;5032033;28;20044;-76
2021/01/01 05:44:31;;;;;;;6.15;4.47;;;7.90;99.90;;;;;;5033095;28;20112;-76
2021/01/01 05:47:15;;;;;;;5.47;4.60;;;7.90;99.90;;;;;;5032011;28;20167;-76
2021/01/01 05:49:42;;;;;;;13.07;4.30;;;8.00;99.90;;;;;;5032477;28;20025;-76
2021/01/01 05:52:12;;;;;;;6.60;4.57;;;7.90;99.90;;;;;;5030569;28;20026;-74
2021/01/01 05:54:43;;;;;;;6.00;4.20;;;8.00;99.90;;;;;;5032234;28;20184;-76
2021/01/01 05:57:11;;;;;;;6.32;5.72;;;8.00;99.90;;;;;;5026476;28;20091;-75
2021/01/01 05:59:48;;;;;;;8.18;5.05;;;8.00;99.90;;;;;;5030959;28;20424;-76
2021/01/01 06:02:15;;;;;;;8.40;4.68;;;8.00;99.90;;;;;;5030257;28;20021;-75
2021/01/01 06:04:41;;;;;;;10.50;6.03;;;8.10;99.90;;;;;;5029350;28;20676;-76
2021/01/01 06:07:09;;;;;;;8.70;4.93;;;8.10;99.90;;;;;;5026999;28;20041;-74
2021/01/01 06:09:37;;;;;;;12.90;4.40;;;8.10;99.90;;;;;;5032954;28;20069;-76
2021/01/01 06:12:11;;;;;;;4.45;3.97;;;8.10;99.90;;;;;;5018741;28;20026;-75
2021/01/01 06:14:45;;;;;;;6.22;4.60;;;8.10;99.90;;;;;;5033140;28;20022;-75
2021/01/01 06:17:11;;;;;;;5.68;4.35;;;8.00;99.90;;;;;;5019647;28;20088;-75
2021/01/01 06:19:52;;;;;;;7.43;4.03;;;8.00;99.90;;;;;;5032093;28;20439;-75
2021/01/01 06:22:23;;;;;;;9.35;4.25;;;7.80;99.90;;;;;;5029487;28;20033;-75
2021/01/01 06:24:55;;;;;;;5.63;4.45;;;7.80;99.90;;;;;;5034650;28;20044;-75
2021/01/01 06:27:23;;;;;;;5.00;4.10;;;7.70;99.90;;;;;;5034329;28;20481;-75
2021/01/01 06:30:01;;;;;;;5.32;4.45;;;7.60;99.90;;;;;;5034373;28;20057;-75
2021/01/01 06:32:31;;;;;;;6.68;4.13;;;7.60;99.90;;;;;;5029432;28;20022;-76
2021/01/01 06:35:20;;;;;;;9.38;4.15;;;7.50;99.90;;;;;;5033851;28;20116;-75
2021/01/01 06:37:56;;;;;;;9.18;4.72;;;7.60;99.90;;;;;;5033280;28;20485;-76
2021/01/01 06:40:22;;;;;;;8.50;4.40;;;7.50;99.90;;;;;;5029852;28;20033;-76
2021/01/01 06:43:06;;;;;;;5.22;3.70;;;7.50;99.90;;;;;;5035404;28;20029;-76
2021/01/01 06:45:39;;;;;;;4.10;3.67;;;7.50;99.90;;;;;;5027351;28;20025;-80
2021/01/01 06:48:18;;;;;;;7.80;4.97;;;7.50;99.90;;;;;;5034221;28;20032;-75
2021/01/01 06:50:48;;;;;;;4.43;4.03;;;7.50;99.90;;;;;;5035044;28;20032;-76
2021/01/01 06:53:15;;;;;;;6.82;3.90;;;7.50;99.90;;;;;;5037710;28;20533;-75
2021/01/01 06:55:46;;;;;;;4.18;3.78;;;7.50;99.90;;;;;;5035639;28;20017;-76
2021/01/01 06:58:13;;;;;;;7.05;4.63;;;7.50;99.90;;;;;;5029880;28;20105;-75
2021/01/01 07:00:45;;;;;;;4.75;4.28;;;7.60;99.90;;;;;;5036703;28;20033;-76
2021/01/01 07:03:26;;;;;;;8.10;4.90;;;7.60;99.90;;;;;;5030160;28;20021;-76
2021/01/01 07:05:56;;;;;;;4.07;3.78;;;7.70;99.90;;;;;;5031875;28;20850;-75
2021/01/01 07:08:43;;;;;;;4.60;3.55;;;7.70;99.90;;;;;;5031383;28;20144;-75
2021/01/01 07:11:09;;;;;;;4.38;3.85;;;7.80;99.90;;;;;;5034477;28;20065;-75
2021/01/01 07:13:50;;;;;;;6.50;3.92;;;7.80;99.90;;;;;;5035469;28;20017;-75
2021/01/01 07:16:22;;;;;;;6.40;3.10;;;7.70;99.90;;;;;;5034825;28;20018;-75
2021/01/01 07:18:49;;;;;;;5.85;3.63;;;7.70;99.90;;;;;;5035036;28;20033;-75
2021/01/01 07:21:16;;;;;;;5.53;3.40;;;7.80;99.90;;;;;;5035201;28;20037;-75
2021/01/01 07:23:44;;;;;;;4.22;3.60;;;7.80;99.90;;;;;;5034785;28;20022;-75
2021/01/01 07:26:11;;;;;;;4.30;3.53;;;7.80;99.90;;;;;;5035184;28;20025;-75
2021/01/01 07:28:41;;;;;;;5.10;3.42;;;7.80;99.90;;;;;;5028447;28;20022;-75
2021/01/01 07:31:08;;;;;;;4.38;3.55;;;7.90;99.90;;;;;;5027583;28;20018;-75
2021/01/01 07:33:34;;;;;;;5.85;2.80;;;7.90;99.90;;;;;;5035395;28;20036;-75
2021/01/01 07:36:02;;;;;;;3.42;3.08;;;7.90;99.90;;;;;;5035585;28;20045;-75
2021/01/01 07:38:29;;;;;;;6.35;3.53;;;7.90;99.90;;;;;;5035379;28;20558;-75
2021/01/01 07:40:55;;;;;;;7.15;2.92;;;8.00;99.90;;;;;;5030402;28;20037;-75
2021/01/01 07:43:22;;;;;;;4.32;3.10;;;8.00;99.90;;;;;;5035074;28;20018;-75
2021/01/01 07:45:48;;;;;;;4.40;2.88;;;8.00;99.90;;;;;;5034030;28;20061;-75
2021/01/01 07:48:14;;;;;;;3.55;3.05;;;8.10;99.90;;;;;;5034307;28;20052;-76
2021/01/01 07:50:41;;;;;;;3.95;2.30;;;8.10;99.90;;;;;;5034766;28;20037;-75
2021/01/01 07:53:11;;;;;;;4.75;3.20;;;8.10;99.90;;;;;;5034743;28;20029;-75
2021/01/01 07:55:38;;;;;;;5.63;3.78;;;8.10;99.90;;;;;;5044632;28;20068;-75
2021/01/01 07:58:12;;;;;;;5.15;3.35;;;8.00;99.90;;;;;;5035599;28;20017;-75
2021/01/01 08:00:40;;;;;;;5.03;3.40;;;8.00;99.90;;;;;;5032777;28;20022;-75
2021/01/01 08:03:08;;;;;;;6.60;3.03;;;8.10;99.90;;;;;;5033928;28;20025;-75
2021/01/01 08:05:35;;;;;;;3.50;2.78;;;8.10;99.90;;;;;;5032654;28;20029;-69
2021/01/01 08:08:30;;;;;;;3.10;2.80;;;8.20;99.90;;;;;;5033750;28;20030;-69
2021/01/01 08:10:58;;;;;;;4.75;3.33;;;8.20;99.90;;;;;;5019972;28;20057;-70
2021/01/01 08:13:32;;;;;;;4.20;3.35;;;8.20;99.90;;;;;;5023760;28;20112;-69
2021/01/01 08:16:09;;;;;;;6.25;3.60;;;8.10;99.90;;;;;;5033289;28;20021;-69
2021/01/01 08:18:35;;;;;;;8.88;3.38;;;8.10;99.90;;;;;;5033348;28;20025;-68
2021/01/01 08:21:03;;;;;;;4.07;3.35;;;8.80;99.90;;;;;;5030269;28;20607;-69
2021/01/01 08:23:43;;;;;;;10.77;4.30;;;8.70;99.90;;;;;;5029874;28;20398;-69
2021/01/01 08:26:08;;;;;;;5.60;3.15;;;8.60;99.90;;;;;;5033922;28;20035;-70
2021/01/01 08:28:35;;;;;;;7.88;2.90;;;8.50;99.90;;;;;;5033848;28;20104;-70
2021/01/01 08:31:07;;;;;;;4.03;2.83;;;8.40;99.90;;;;;;5033198;28;20026;-71
2021/01/01 08:33:37;;;;;;;3.35;2.78;;;8.30;99.90;;;;;;5032660;28;20040;-71
2021/01/01 08:36:08;;;;;;;6.40;3.03;;;8.30;99.90;;;;;;5033222;28;20014;-71
2021/01/01 08:38:35;;;;;;;3.85;3.10;;;8.30;99.90;;;;;;5032582;28;20448;-71
2021/01/01 08:41:01;;;;;;;5.32;3.08;;;8.30;99.90;;;;;;5028547;28;20044;-71
2021/01/01 08:43:29;;;;;;;3.67;3.03;;;8.40;99.90;;;;;;5032087;28;20485;-71
2021/01/01 08:45:55;;;;;;;5.35;3.00;;;8.30;99.90;;;;;;5031018;28;20033;-71
2021/01/01 08:48:21;;;;;;;2.97;2.53;;;8.40;99.90;;;;;;5031074;28;20104;-71
2021/01/01 08:50:51;;;;;;;6.80;3.17;;;8.40;99.90;;;;;;5030790;28;20053;-72
2021/01/01 08:53:19;;;;;;;4.47;2.38;;;8.50;99.90;;;;;;5027297;28;20049;-73
2021/01/01 08:55:58;;;;;;;2.78;2.58;;;8.50;99.90;;;;;;5031815;28;20013;-72
2021/01/01 08:58:24;;;;;;;3.67;3.30;;;8.50;99.90;;;;;;5033581;28;20021;-73
2021/01/01 09:00:50;;;;;;;3.13;2.55;;;8.50;99.90;;;;;;5029288;28;20170;-74
2021/01/01 09:03:17;;;;;;;3.45;2.85;;;8.50;99.90;;;;;;5025916;28;20029;-73
2021/01/01 09:05:46;;;;;;;3.83;3.45;;;8.50;99.90;;;;;;5030159;28;20531;-73
2021/01/01 09:08:17;;;;;;;7.90;3.17;;;8.50;99.90;;;;;;5031072;28;20052;-77
2021/01/01 09:10:44;;;;;;;6.55;3.20;;;8.60;99.90;;;;;;5029043;28;20409;-75
2021/01/01 09:13:30;;;;;;;3.50;3.00;;;8.50;99.90;;;;;;5026314;28;20021;-76
2021/01/01 09:16:12;;;;;;;5.68;3.03;;;8.50;99.90;;;;;;5031256;28;20055;-75
2021/01/01 09:18:38;;;;;;;6.57;3.17;;;8.50;99.90;;;;;;5032282;28;20075;-75
2021/01/01 09:21:22;;;;;;;8.32;4.80;;;8.50;99.90;;;;;;5027798;28;20030;-75
2021/01/01 09:23:55;;;;;;;4.55;3.85;;;8.60;99.90;;;;;;5031409;28;20022;-74
2021/01/01 09:26:26;;;;;;;4.32;3.58;;;8.60;99.90;;;;;;5031760;28;20021;-74
2021/01/01 09:29:19;;;;;;;11.25;4.97;;;8.60;99.90;;;;;;5032281;28;20030;-73
2021/01/01 09:31:45;;;;;;;4.50;3.55;;;8.70;99.90;;;;;;5029254;28;20128;-73
2021/01/01 09:34:11;;;;;;;5.50;3.70;;;8.70;99.90;;;;;;5031878;28;20045;-73
2021/01/01 09:36:40;;;;;;;4.72;3.97;;;8.70;99.90;;;;;;5031006;28;20037;-72
2021/01/01 09:39:07;;;;;;;6.55;3.90;;;8.70;99.90;;;;;;5031132;28;20021;-72
2021/01/01 09:41:38;;;;;;;6.53;4.78;;;8.70;99.90;;;;;;5023577;28;20048;-73
2021/01/01 09:44:05;;;;;;;6.03;4.28;;;8.80;99.90;;;;;;5031738;28;20053;-73
2021/01/01 09:46:31;;;;;;;6.03;4.03;;;8.80;99.90;;;;;;5030869;28;20060;-73
2021/01/01 09:48:57;;;;;;;4.25;3.35;;;8.90;99.90;;;;;;5032948;28;20546;-72
2021/01/01 09:51:22;;;;;;;6.90;5.63;;;8.90;99.90;;;;;;5032932;28;20072;-73
2021/01/01 09:53:48;;;;;;;4.28;3.85;;;9.00;99.90;;;;;;5023273;28;20493;-73
2021/01/01 09:56:14;;;;;;;4.10;2.83;;;9.00;99.90;;;;;;5031707;28;20029;-73
2021/01/01 09:58:40;;;;;;;4.43;3.63;;;8.90;99.90;;;;;;5030506;28;20041;-73
2021/01/01 10:01:06;;;;;;;4.97;4.25;;;9.10;99.90;;;;;;5030717;28;20060;-73
2021/01/01 10:03:32;;;;;;;10.00;4.15;;;9.20;99.90;;;;;;5031997;28;20025;-73
2021/01/01 10:05:58;;;;;;;3.60;3.25;;;9.40;99.90;;;;;;5030660;28;20128;-72
2021/01/01 10:08:23;;;;;;;4.63;4.22;;;9.40;99.90;;;;;;5031752;28;20112;-73
2021/01/01 10:10:49;;;;;;;4.85;3.90;;;9.60;99.90;;;;;;5030403;28;20025;-73
2021/01/01 10:13:16;;;;;;;6.07;4.22;;;9.60;99.90;;;;;;5010897;28;20416;-73
2021/01/01 10:15:41;;;;;;;7.65;4.78;;;9.70;99.90;;;;;;5032231;28;20057;-73
2021/01/01 10:18:07;;;;;;;6.20;4.90;;;9.90;99.90;;;;;;5033534;28;20106;-75
2021/01/01 10:20:33;;;;;;;11.68;8.15;;;10.00;99.90;;;;;;5036444;28;20029;-75
2021/01/01 10:22:59;;;;;;;9.30;4.70;;;10.10;99.90;;;;;;5037333;28;20111;-75
2021/01/01 10:25:25;;;;;;;8.70;4.32;;;10.20;99.90;;;;;;5036683;28;20022;-76
2021/01/01 10:27:51;;;;;;;6.22;3.78;;;10.40;99.90;;;;;;5048713;28;20029;-76
2021/01/01 10:30:17;;;;;;;8.48;4.07;;;10.50;99.90;;;;;;5034776;28;20032;-73
2021/01/01 10:32:43;;;;;;;8.02;4.00;;;10.60;99.90;;;;;;5032718;28;20052;-74
2021/01/01 10:35:09;;;;;;;8.93;6.47;;;10.60;99.90;;;;;;5034372;28;20046;-73
2021/01/01 10:37:35;;;;;;;6.10;4.65;;;10.70;99.90;;;;;;5036078;28;20025;-72
2021/01/01 10:40:02;;;;;;;6.22;4.30;;;10.80;99.90;;;;;;5039598;28;20017;-74
2021/01/01 10:42:28;;;;;;;7.15;4.55;;;10.90;99.90;;;;;;5040923;28;20108;-72
2021/01/01 10:44:54;;;;;;;4.85;4.25;;;10.90;99.90;;;;;;5036379;28;20064;-72
2021/01/01 10:47:20;;;;;;;6.05;4.72;;;11.10;99.90;;;;;;5031357;28;20021;-72
2021/01/01 10:49:46;;;;;;;6.75;3.85;;;11.20;99.90;;;;;;5034588;28;20021;-72
2021/01/01 10:52:12;;;;;;;7.13;4.47;;;11.30;99.90;;;;;;5033777;28;20022;-72
2021/01/01 10:54:38;;;;;;;4.45;4.03;;;11.40;99.90;;;;;;5033984;28;20397;-72
2021/01/01 10:57:03;;;;;;;8.30;3.90;;;11.50;99.90;;;;;;5031939;28;20026;-72
2021/01/01 10:59:30;;;;;;;5.88;4.60;;;11.40;99.90;;;;;;5034264;28;20441;-72
2021/01/01 11:02:00;;;;;;;6.38;4.65;;;11.30;99.90;;;;;;5035008;28;20041;-72
2021/01/01 11:04:26;;;;;;;10.82;5.70;;;11.30;99.90;;;;;;5033097;28;20033;-72
2021/01/01 11:06:52;;;;;;;8.00;4.10;;;11.40;99.90;;;;;;5029124;28;20491;-72
2021/01/01 11:09:18;;;;;;;6.35;5.03;;;11.40;99.90;;;;;;5031497;28;20100;-73
2021/01/01 11:11:46;;;;;;;9.48;5.85;;;11.40;99.90;;;;;;5039332;28;20049;-73
2021/01/01 11:14:17;;;;;;;9.48;6.75;;;11.50;99.90;;;;;;5043138;28;20017;-72
2021/01/01 12:25:05;;;;;;;17.77;5.20;;;12.10;99.90;;;;;;5031669;28;20029;-72
2021/01/01 12:27:35;;;;;;;9.25;5.75;;;12.10;99.90;;;;;;5031752;28;20028;-72
2021/01/01 12:30:11;;;;;;;10.48;5.60;;;12.00;99.90;;;;;;5030952;28;20068;-73
2021/01/01 12:32:38;;;;;;;8.25;5.65;;;11.90;99.90;;;;;;5030817;28;20020;-72
2021/01/01 12:35:04;;;;;;;11.40;6.15;;;12.00;99.90;;;;;;5032341;28;20112;-72
2021/01/01 12:37:30;;;;;;;8.10;4.97;;;11.90;99.90;;;;;;5030661;28;20198;-72
2021/01/01 12:39:56;;;;;;;9.73;4.63;;;11.80;99.90;;;;;;5029933;28;20516;-72
2021/01/01 12:42:21;;;;;;;7.18;4.95;;;11.60;99.90;;;;;;5030012;28;20481;-72
2021/01/01 12:44:47;;;;;;;6.68;5.13;;;11.50;99.90;;;;;;5031018;28;20484;-72
2021/01/01 12:47:14;;;;;;;9.75;5.03;;;11.50;99.90;;;;;;5026315;28;20109;-72
2021/01/01 12:49:41;;;;;;;8.88;4.40;;;11.60;99.90;;;;;;5025405;28;20033;-72
2021/01/01 12:52:07;;;;;;;8.98;5.40;;;11.60;99.90;;;;;;5027947;28;20021;-72
2021/01/01 12:54:33;;;;;;;7.15;5.50;;;11.60;99.90;;;;;;5031228;28;20021;-72
2021/01/01 12:56:59;;;;;;;9.68;5.55;;;11.70;99.90;;;;;;5030341;28;20443;-72
2021/01/01 12:59:25;;;;;;;9.40;6.90;;;11.60;99.90;;;;;;5020866;28;20065;-72
2021/01/01 13:01:51;;;;;;;7.65;5.78;;;11.60;99.90;;;;;;5026350;28;20025;-72
2021/01/01 13:04:17;;;;;;;8.43;6.82;;;11.60;99.90;;;;;;5030366;28;20037;-72
2021/01/01 13:06:43;;;;;;;9.15;6.75;;;11.60;99.90;;;;;;5028544;28;20072;-72
2021/01/01 13:09:09;;;;;;;11.48;7.25;;;11.70;99.90;;;;;;5023270;28;20473;-72
2021/01/01 13:11:35;;;;;;;9.65;6.65;;;11.70;99.90;;;;;;5029557;28;20025;-72
2021/01/01 13:14:01;;;;;;;9.13;7.00;;;11.80;99.90;;;;;;5031962;28;20381;-72
2021/01/01 13:16:28;;;;;;;9.18;6.35;;;11.80;99.90;;;;;;5031624;28;20017;-73
2021/01/01 13:18:55;;;;;;;12.27;6.72;;;12.00;99.90;;;;;;5024805;28;20661;-72
2021/01/01 13:21:35;;;;;;;7.00;5.95;;;11.80;99.90;;;;;;5029980;28;20033;-73
2021/01/01 13:24:03;;;;;;;8.05;5.43;;;11.70;99.90;;;;;;5030028;28;20040;-73
2021/01/01 13:26:30;;;;;;;11.02;6.40;;;11.80;99.90;;;;;;5028567;28;20022;-71
2021/01/01 13:28:57;;;;;;;7.45;6.63;;;11.80;99.90;;;;;;5023216;28;20030;-72
2021/01/01 13:31:32;;;;;;;7.22;5.50;;;11.80;99.90;;;;;;5028052;28;20024;-72
2021/01/01 13:33:58;;;;;;;16.10;6.18;;;11.90;99.90;;;;;;5026722;28;20139;-72
2021/01/01 13:36:23;;;;;;;9.35;5.93;;;11.90;99.90;;;;;;5022464;28;20027;-73
2021/01/01 13:38:49;;;;;;;8.45;5.30;;;12.00;99.90;;;;;;5029425;28;20345;-73
2021/01/01 13:41:15;;;;;;;8.07;5.22;;;11.90;99.90;;;;;;5028963;28;20025;-72
2021/01/01 13:43:42;;;;;;;8.80;6.70;;;11.80;99.90;;;;;;5028599;28;20030;-73
2021/01/01 13:46:09;;;;;;;7.93;6.47;;;11.80;99.90;;;;;;5022225;28;20049;-72
2021/01/01 13:48:35;;;;;;;7.60;6.80;;;11.80;99.90;;;;;;5029112;28;20026;-73
2021/01/01 13:51:02;;;;;;;18.15;11.60;;;11.70;99.90;;;;;;5027309;28;20108;-73
2021/01/01 13:53:28;;;;;;;11.00;7.72;;;11.80;99.90;;;;;;5027569;28;20441;-73
2021/01/01 13:55:54;;;;;;;23.40;15.77;;;11.50;99.90;;;;;;5026293;28;20087;-72
2021/01/01 13:58:21;;;;;;;57.53;30.83;;;11.30;99.90;;;;;;5023993;28;20017;-72
2021/01/01 14:00:50;;;;;;;14.80;7.38;;;11.10;99.90;;;;;;5027790;28;20026;-73
2021/01/01 14:03:17;;;;;;;10.30;5.50;;;10.60;99.90;;;;;;5029956;28;20051;-73
2021/01/01 14:05:42;;;;;;;9.32;6.28;;;10.20;99.90;;;;;;5030847;28;20105;-73